Terminal Aerodrome Forecast
Issued by NWS Wilmington, OH

Home | Current Version | Previous Version | Text Only | Print | Product List | Glossary On
Versions: 1 2 3 4 5 6 7 8 9 10 11 12 13 14 15 16 17 18 19
000
FTUS41 KILN 161700
TAFILN
TAF
KILN 161740Z 1618/1718 03006KT P6SM OVC022
     FM162200 01005KT P6SM BKN025
     FM170100 VRB03KT P6SM SKC
     FM170800 VRB03KT 4SM BR SKC
      TEMPO 1708/1712 1/2SM FG VV001
     FM171300 VRB03KT P6SM SCT015
     FM171500 28005KT P6SM BKN035=

USA.gov is the U.S. government's official web portal to all federal, state and local government web resources and services.